Pagrindinis puslapis
METAR-TAF:

METAR-TAF

Oro uostai :

Perudža, Italija

platuma: 43-05N, ilguma: 012-30E, Aukštis: 208 m

Dabartinis oras

Ataskaita buvo paskelbta 1 valandą ir 28 minutes, ne 19:50 UTC
Vėjas 2 kt iš Šiaurės/Šiaurės Rytų
Temperatūra 7°C
Drėgmė 93%
Slėgis 1019 hPa
Matomumas 10 km arba daugiau
Išsisklaidę debesys ne aukštis 5000 ft

METAR: LIRZ 271950Z 03002KT 9999 SCT050 07/06 Q1019

Laikas: 22:18 (21:18 UTC)

Prognozė

Ataskaita buvo paskelbta 4 valandos ir 18 minutes, ne 17:00 UTC
Prognozė galioja nuo 27 metu 18 UTC su 28 metu 18 UTC
Vėjas 4 kt nuo kintamojo kryptimis
Matomumas: 6000 m
Išsisklaidę debesys ne aukštis 3000 ft
Laikinai
nuo 27 metu 18 UTC su 28 metu 06 UTC
Matomumas: 2000 m
rūkana
Laikinai
nuo 28 metu 06 UTC su 28 metu 14 UTC
Matomumas: 3000 m
lietus

TAF: LIRZ 271700Z 2718/2818 VRB04KT 6000 SCT030 TEMPO 2718/2806 2000 BR TEMPO 2806/2814 3000 RA

Orai ataskaitas ir orų prognozės (METAR, TAF).

turimą stotys yra geltonos ir raudonos taškus žemėlapyje.

Perkelti pele per norėdami pamatyti stoties vardą.

Tada spustelėkite, norėdami matyti oro stebėjimo ir prognozės.

Norėdami pakeisti žemėlapį: spustelėkite ant žalios mygtukų su juodo kryžiaus žemyn,; žalią mygtuką su brūkšneliu, jei norite nutolinti; arba žalių rodyklių gretimoms žemėlapius.


METAR-TAF: